createdAt,value
2019-01-13T00:01:35.661Z,5.94
2019-01-13T00:06:36.623Z,5.96
2019-01-13T00:11:41.084Z,5.90
2019-01-13T00:16:43.839Z,4.04
2019-01-13T00:21:49.949Z,3.77
2019-01-13T00:27:00.363Z,3.01
2019-01-13T00:31:53.417Z,2.77
2019-01-13T00:37:03.322Z,2.17
2019-01-13T00:42:15.949Z,3.76
2019-01-13T00:47:14.931Z,3.28
2019-01-13T00:52:29.729Z,5.16
2019-01-13T00:57:32.729Z,3.21
2019-01-13T01:02:31.254Z,2.29
2019-01-13T01:07:39.900Z,2.81
2019-01-13T01:12:52.479Z,3.15
2019-01-13T01:17:50.847Z,1.78
2019-01-13T01:23:02.574Z,2.48
2019-01-13T01:28:03.981Z,2.80
2019-01-13T01:33:03.303Z,2.10
2019-01-13T01:38:14.804Z,3.61
2019-01-13T01:43:14.156Z,3.27
2019-01-13T01:48:33.162Z,2.99
2019-01-13T01:53:32.160Z,3.26
2019-01-13T01:58:42.146Z,2.30
2019-01-13T02:03:52.170Z,3.38
2019-01-13T02:09:02.842Z,3.09
2019-01-13T02:14:06.837Z,1.75
2019-01-13T02:19:05.279Z,1.87
2019-01-13T02:24:14.932Z,2.44
2019-01-13T02:29:24.964Z,2.13
2019-01-13T02:34:24.845Z,1.60
2019-01-13T02:39:33.166Z,2.10
2019-01-13T02:44:44.255Z,1.80
2019-01-13T02:49:44.601Z,1.64
2019-01-13T02:54:44.431Z,1.62
2019-01-13T02:59:52.859Z,1.78
2019-01-13T03:05:02.159Z,1.40
2019-01-13T03:10:15.270Z,1.63
2019-01-13T03:15:19.581Z,1.55
2019-01-13T03:20:19.075Z,1.83
2019-01-13T03:25:19.355Z,1.60
2019-01-13T03:30:21.488Z,2.05
2019-01-13T03:35:22.650Z,2.48
2019-01-13T03:40:24.260Z,1.88
2019-01-13T03:45:25.237Z,2.32
2019-01-13T03:50:24.930Z,2.67
2019-01-13T03:55:36.481Z,2.52
2019-01-13T04:00:34.922Z,1.85
2019-01-13T04:05:44.588Z,1.62
2019-01-13T04:10:58.056Z,1.67
2019-01-13T04:15:55.323Z,1.59
2019-01-13T04:21:09.604Z,1.58
2019-01-13T04:26:10.294Z,1.81
2019-01-13T04:31:11.542Z,1.99
2019-01-13T04:36:13.327Z,1.58
2019-01-13T04:41:26.722Z,2.42
2019-01-13T04:46:18.709Z,2.42
2019-01-13T04:51:23.276Z,1.69
2019-01-13T04:56:30.166Z,1.84
2019-01-13T05:01:34.361Z,1.67
2019-01-13T05:06:31.447Z,2.24
2019-01-13T05:11:38.791Z,1.78
2019-01-13T05:16:40.630Z,2.20
2019-01-13T05:21:42.058Z,1.88
2019-01-13T05:26:42.599Z,2.14
2019-01-13T05:31:45.810Z,2.02
2019-01-13T05:36:47.603Z,1.69
2019-01-13T05:41:48.685Z,1.85
2019-01-13T05:46:49.603Z,2.01
2019-01-13T05:51:52.108Z,1.95
2019-01-13T05:56:53.674Z,1.80
2019-01-13T06:01:56.186Z,2.47
2019-01-13T06:07:03.801Z,1.77
2019-01-13T06:12:09.719Z,1.50
2019-01-13T06:17:13.145Z,1.82
2019-01-13T06:22:15.021Z,2.35
2019-01-13T06:27:15.754Z,2.23
2019-01-13T06:32:20.916Z,2.79
2019-01-13T06:37:20.351Z,3.19
2019-01-13T06:42:34.989Z,2.27
2019-01-13T06:47:41.495Z,3.29
2019-01-13T06:52:40.336Z,2.86
2019-01-13T06:57:55.034Z,3.33
2019-01-13T07:02:53.480Z,2.82
2019-01-13T07:08:03.225Z,2.90
2019-01-13T07:13:13.544Z,2.92
2019-01-13T07:18:15.083Z,3.41
2019-01-13T07:23:14.325Z,2.59
2019-01-13T07:28:24.951Z,2.81
2019-01-13T07:33:31.251Z,4.13
2019-01-13T07:38:30.436Z,3.41
2019-01-13T07:43:42.348Z,4.04
2019-01-13T07:48:44.299Z,4.20
2019-01-13T07:53:45.187Z,3.25
2019-01-13T07:58:47.824Z,5.68
2019-01-13T08:03:49.997Z,3.05
2019-01-13T08:08:49.087Z,3.16
2019-01-13T08:13:59.937Z,3.29
2019-01-13T08:19:00.652Z,2.91
2019-01-13T08:24:01.063Z,2.95
2019-01-13T08:29:02.795Z,34.70
2019-01-13T08:34:06.718Z,58.68
2019-01-13T08:39:09.532Z,17.38
2019-01-13T08:44:09.503Z,12.06
2019-01-13T08:49:19.950Z,5.18
2019-01-13T08:54:18.717Z,41.25
2019-01-13T08:59:34.598Z,18.45
2019-01-13T09:04:34.140Z,7.64
2019-01-13T09:09:46.094Z,8.17
2019-01-13T09:14:58.026Z,7.04
2019-01-13T09:19:47.461Z,8.99
2019-01-13T09:25:04.696Z,14.16
2019-01-13T09:30:09.197Z,18.89
2019-01-13T09:35:10.121Z,15.06
2019-01-13T09:40:12.152Z,9.17
2019-01-13T09:45:12.680Z,10.08
2019-01-13T09:50:16.884Z,7.35
2019-01-13T09:55:21.527Z,7.11
2019-01-13T10:00:24.005Z,8.19
2019-01-13T10:05:26.302Z,7.99
2019-01-13T10:10:40.110Z,44.99
2019-01-13T10:15:39.101Z,45.80
2019-01-13T10:20:38.412Z,28.46
2019-01-13T10:25:38.572Z,10.87
2019-01-13T10:30:38.531Z,19.25
2019-01-13T10:35:48.367Z,15.23
2019-01-13T10:40:49.143Z,15.05
2019-01-13T10:45:52.364Z,18.85
2019-01-13T10:50:53.705Z,17.60
2019-01-13T10:55:55.486Z,15.46
2019-01-13T11:00:53.505Z,10.32
2019-01-13T11:06:14.246Z,9.59
2019-01-13T11:11:06.807Z,11.17
2019-01-13T11:16:07.673Z,11.63
2019-01-13T11:21:08.795Z,10.91
2019-01-13T11:26:11.138Z,15.07
2019-01-13T11:31:13.104Z,10.90
2019-01-13T11:36:20.773Z,7.76
2019-01-13T11:41:24.711Z,13.96
2019-01-13T11:46:28.575Z,11.03
2019-01-13T11:51:29.457Z,45.89
2019-01-13T11:56:32.710Z,95.52
2019-01-13T12:01:36.301Z,72.24
2019-01-13T12:06:34.974Z,56.59
2019-01-13T12:11:55.218Z,41.56
2019-01-13T12:16:46.654Z,75.88
2019-01-13T12:21:56.054Z,18.57
2019-01-13T12:26:55.041Z,15.50
2019-01-13T12:31:57.584Z,11.88
2019-01-13T12:36:58.382Z,10.30
2019-01-13T12:42:02.888Z,12.77
2019-01-13T12:47:03.408Z,12.28
2019-01-13T12:52:04.720Z,10.56
2019-01-13T12:57:05.703Z,11.99
2019-01-13T13:02:09.015Z,12.84
2019-01-13T13:07:07.321Z,14.66
2019-01-13T13:12:18.165Z,13.49
2019-01-13T13:17:17.056Z,12.21
2019-01-13T13:22:29.537Z,13.34
2019-01-13T13:27:29.285Z,13.79
2019-01-13T13:32:30.631Z,19.25
2019-01-13T13:37:30.781Z,14.34
2019-01-13T13:42:32.346Z,11.42
2019-01-13T13:47:32.455Z,11.41
2019-01-13T13:52:35.143Z,13.36
2019-01-13T13:57:35.437Z,15.39
2019-01-13T14:02:46.099Z,21.26
2019-01-13T14:07:44.918Z,16.12
2019-01-13T14:12:57.454Z,16.37
2019-01-13T14:17:57.113Z,31.41
2019-01-13T14:23:10.626Z,20.60
2019-01-13T14:28:11.338Z,38.41
2019-01-13T14:33:11.686Z,19.98
2019-01-13T14:38:11.907Z,17.63
2019-01-13T14:43:11.660Z,15.70
2019-01-13T14:48:22.270Z,11.80
2019-01-13T14:53:23.652Z,13.52
2019-01-13T14:58:21.922Z,11.51
2019-01-13T15:03:38.884Z,14.56
2019-01-13T15:08:38.789Z,16.47
2019-01-13T15:13:39.009Z,12.19
2019-01-13T15:18:51.076Z,10.51
2019-01-13T15:23:51.356Z,12.31
2019-01-13T15:28:55.430Z,13.99
2019-01-13T15:34:07.306Z,14.90
2019-01-13T15:39:02.528Z,14.00
2019-01-13T15:44:11.168Z,27.92
2019-01-13T15:49:19.698Z,20.47
2019-01-13T15:54:32.794Z,14.27
2019-01-13T15:59:32.655Z,15.31
2019-01-13T16:04:43.144Z,17.13
2019-01-13T16:09:42.690Z,14.05
2019-01-13T16:15:06.210Z,19.18
2019-01-13T16:19:56.184Z,18.39
2019-01-13T16:25:00.021Z,16.14
2019-01-13T16:29:58.877Z,18.94
2019-01-13T16:35:09.687Z,17.23
2019-01-13T16:40:11.136Z,16.00
2019-01-13T16:45:12.842Z,17.55
2019-01-13T16:50:17.434Z,20.88
2019-01-13T16:55:18.914Z,27.27
2019-01-13T17:00:25.251Z,27.21
2019-01-13T17:05:30.323Z,18.35
2019-01-13T17:10:32.281Z,17.50
2019-01-13T17:15:33.539Z,15.67
2019-01-13T17:20:37.200Z,18.22
2019-01-13T17:25:44.234Z,16.75
2019-01-13T17:30:43.525Z,15.66
2019-01-13T17:35:46.492Z,26.21
2019-01-13T17:40:48.493Z,16.22
2019-01-13T17:45:49.925Z,16.84
2019-01-13T17:50:56.198Z,32.65
2019-01-13T17:55:56.647Z,18.86
2019-01-13T18:00:55.342Z,20.56
2019-01-13T18:06:05.845Z,16.99
2019-01-13T18:11:06.384Z,19.62
2019-01-13T18:16:07.317Z,17.92
2019-01-13T18:21:07.671Z,13.33
2019-01-13T18:26:07.043Z,21.53
2019-01-13T18:31:16.362Z,15.46
2019-01-13T18:36:29.600Z,17.49
2019-01-13T18:41:33.691Z,15.07
2019-01-13T18:46:35.391Z,13.06
2019-01-13T18:51:36.359Z,14.85
2019-01-13T18:56:49.361Z,19.49
2019-01-13T19:01:43.900Z,20.82
2019-01-13T19:06:45.411Z,11.95
2019-01-13T19:11:58.469Z,18.61
2019-01-13T19:16:47.970Z,15.15
2019-01-13T19:21:54.287Z,13.51
2019-01-13T19:27:00.815Z,16.10
2019-01-13T19:32:02.541Z,17.38
2019-01-13T19:37:06.522Z,13.21
2019-01-13T19:42:11.755Z,12.95
2019-01-13T19:47:15.878Z,12.91
2019-01-13T19:52:16.585Z,11.29
2019-01-13T19:57:22.420Z,32.38
2019-01-13T20:02:22.580Z,13.48
2019-01-13T20:07:22.622Z,12.16
2019-01-13T20:12:29.470Z,15.78
2019-01-13T20:17:29.285Z,10.88
2019-01-13T20:22:31.492Z,12.14
2019-01-13T20:27:31.764Z,15.71
2019-01-13T20:32:34.476Z,13.75
2019-01-13T20:37:33.346Z,20.36
2019-01-13T20:42:58.941Z,12.78
2019-01-13T20:47:47.117Z,17.75
2019-01-13T20:52:59.240Z,44.86
2019-01-13T20:57:59.849Z,22.21
2019-01-13T21:03:01.132Z,11.70
2019-01-13T21:07:59.844Z,10.33
2019-01-13T21:13:13.568Z,12.59
2019-01-13T21:18:25.831Z,15.14
2019-01-13T21:23:15.836Z,14.10
2019-01-13T21:28:17.222Z,27.10
2019-01-13T21:33:19.301Z,43.26
2019-01-13T21:38:20.405Z,17.34
2019-01-13T21:43:23.254Z,14.78
2019-01-13T21:48:22.099Z,14.37
2019-01-13T21:53:33.556Z,11.59
2019-01-13T21:58:32.640Z,11.28
2019-01-13T22:03:50.068Z,11.44
2019-01-13T22:08:56.063Z,9.72
2019-01-13T22:13:54.157Z,9.04
2019-01-13T22:18:54.114Z,11.89
2019-01-13T22:24:12.934Z,8.58
2019-01-13T22:29:12.357Z,9.17
2019-01-13T22:34:14.564Z,9.47
2019-01-13T22:39:14.648Z,8.67
2019-01-13T22:44:12.960Z,7.39
2019-01-13T22:49:21.462Z,5.70
2019-01-13T22:54:31.288Z,8.20
2019-01-13T22:59:41.640Z,9.16
2019-01-13T23:04:41.506Z,9.28
2019-01-13T23:09:51.065Z,7.82
2019-01-13T23:15:06.900Z,8.04
2019-01-13T23:20:08.413Z,10.97
2019-01-13T23:25:06.567Z,9.89
2019-01-13T23:30:18.967Z,10.94
2019-01-13T23:35:19.396Z,8.69
2019-01-13T23:40:24.024Z,9.01
2019-01-13T23:45:24.391Z,8.71
2019-01-13T23:50:26.627Z,7.59
2019-01-13T23:55:27.208Z,8.75
